createdAt,value
2023-04-26T00:01:44.081Z,101051.16
2023-04-26T00:04:20.750Z,101053.72
2023-04-26T00:06:54.338Z,101053.19
2023-04-26T00:09:22.190Z,101048.72
2023-04-26T00:12:16.688Z,101053.47
2023-04-26T00:14:51.343Z,101056.88
2023-04-26T00:17:19.095Z,101052.13
2023-04-26T00:19:58.888Z,101052.13
2023-04-26T00:22:34.772Z,101044.25
2023-04-26T00:25:19.843Z,101047.66
2023-04-26T00:27:53.552Z,101049.03
2023-04-26T00:30:23.110Z,101053.22
2023-04-26T00:32:53.053Z,101054.56
2023-04-26T00:35:20.417Z,101061.00
2023-04-26T00:37:49.474Z,101059.97
2023-04-26T00:40:20.614Z,101058.53
2023-04-26T00:42:49.975Z,101067.06
2023-04-26T00:45:19.805Z,101071.00
2023-04-26T00:47:47.651Z,101066.88
2023-04-26T00:50:14.589Z,101075.25
2023-04-26T00:52:45.729Z,101070.94
2023-04-26T00:55:15.303Z,101070.09
2023-04-26T00:57:42.237Z,101064.06
2023-04-26T01:00:10.204Z,101077.13
2023-04-26T01:02:37.779Z,101071.41
2023-04-26T01:05:06.399Z,101069.03
2023-04-26T01:07:36.893Z,101072.47
2023-04-26T01:10:09.383Z,101066.97
2023-04-26T01:12:40.757Z,101077.00
2023-04-26T01:15:11.487Z,101081.66
2023-04-26T01:17:40.712Z,101079.34
2023-04-26T01:20:10.464Z,101080.00
2023-04-26T01:22:39.987Z,101080.47
2023-04-26T01:25:10.118Z,101091.19
2023-04-26T01:27:36.979Z,101088.47
2023-04-26T01:30:09.717Z,101091.25
2023-04-26T01:32:36.784Z,101093.91
2023-04-26T01:35:07.324Z,101083.22
2023-04-26T01:37:34.325Z,101075.75
2023-04-26T01:40:07.127Z,101075.56
2023-04-26T01:42:34.065Z,101081.53
2023-04-26T01:45:01.000Z,101080.53
2023-04-26T01:47:27.916Z,101088.84
2023-04-26T01:49:54.839Z,101083.91
2023-04-26T01:52:22.988Z,101086.88
2023-04-26T01:54:49.906Z,101088.41
2023-04-26T01:57:16.906Z,101091.31
2023-04-26T01:59:43.744Z,101088.41
2023-04-26T02:02:10.684Z,101085.66
2023-04-26T02:04:37.846Z,101094.28
2023-04-26T02:07:09.538Z,101091.47
2023-04-26T02:09:38.898Z,101092.13
2023-04-26T02:12:08.518Z,101085.91
2023-04-26T02:14:35.346Z,101084.06
2023-04-26T02:17:06.346Z,101087.47
2023-04-26T02:19:33.195Z,101087.22
2023-04-26T02:22:00.076Z,101092.59
2023-04-26T02:24:26.999Z,101080.84
2023-04-26T02:26:54.474Z,101080.88
2023-04-26T02:29:35.926Z,101083.41
2023-04-26T02:32:09.342Z,101088.91
2023-04-26T02:34:38.822Z,101093.50
2023-04-26T02:37:05.707Z,101103.00
2023-04-26T02:39:32.675Z,101104.38
2023-04-26T02:41:59.613Z,101110.22
2023-04-26T02:44:30.997Z,101101.56
2023-04-26T02:46:58.358Z,101092.31
2023-04-26T02:49:27.724Z,101085.31
2023-04-26T02:51:54.611Z,101098.06
2023-04-26T02:54:21.514Z,101084.44
2023-04-26T02:56:55.456Z,101089.94
2023-04-26T02:59:22.312Z,101093.72
2023-04-26T03:01:51.488Z,101093.25
2023-04-26T03:04:18.732Z,101090.56
2023-04-26T03:06:45.740Z,101089.47
2023-04-26T03:09:17.754Z,101096.16
2023-04-26T03:11:44.835Z,101103.00
2023-04-26T03:14:11.726Z,101101.47
2023-04-26T03:16:43.243Z,101107.63
2023-04-26T03:19:10.289Z,101102.41
2023-04-26T03:21:37.522Z,101108.97
2023-04-26T03:24:07.722Z,101104.84
2023-04-26T03:26:37.220Z,101107.63
2023-04-26T03:29:04.992Z,101103.50
2023-04-26T03:31:34.987Z,101105.31
2023-04-26T03:34:04.179Z,101103.94
2023-04-26T03:36:36.191Z,101100.31
2023-04-26T03:39:06.224Z,101100.94
2023-04-26T03:41:33.609Z,101102.88
2023-04-26T03:44:00.575Z,101102.31
2023-04-26T03:46:27.607Z,101101.38
2023-04-26T03:48:54.847Z,101104.78
2023-04-26T03:51:22.124Z,101101.25
2023-04-26T03:53:51.788Z,101104.78
2023-04-26T03:56:21.753Z,101116.66
2023-04-26T03:58:51.049Z,101107.09
2023-04-26T04:01:18.801Z,101108.16
2023-04-26T04:03:48.437Z,101116.06
2023-04-26T04:06:16.784Z,101102.53
2023-04-26T04:08:45.898Z,101113.56
2023-04-26T04:11:16.677Z,101106.56
2023-04-26T04:13:48.853Z,101099.94
2023-04-26T04:16:17.895Z,101109.31
2023-04-26T04:18:49.753Z,101105.41
2023-04-26T04:21:16.807Z,101109.09
2023-04-26T04:23:44.382Z,101109.13
2023-04-26T04:26:12.687Z,101105.50
2023-04-26T04:28:41.828Z,101106.16
2023-04-26T04:31:13.102Z,101102.88
2023-04-26T04:33:40.705Z,101105.06
2023-04-26T04:36:08.359Z,101101.88
2023-04-26T04:38:36.123Z,101102.50
2023-04-26T04:41:05.382Z,101109.06
2023-04-26T04:43:34.742Z,101112.75
2023-04-26T04:46:06.402Z,101110.38
2023-04-26T04:48:38.872Z,101114.19
2023-04-26T04:51:08.278Z,101119.72
2023-04-26T04:53:35.394Z,101121.44
2023-04-26T04:56:02.683Z,101123.31
2023-04-26T04:58:31.763Z,101120.16
2023-04-26T05:01:01.094Z,101123.06
2023-04-26T05:03:28.242Z,101121.59
2023-04-26T05:05:55.211Z,101115.94
2023-04-26T05:08:24.211Z,101120.88
2023-04-26T05:10:51.580Z,101129.84
2023-04-26T05:13:18.403Z,101132.44
2023-04-26T05:15:45.246Z,101133.09
2023-04-26T05:18:14.421Z,101124.88
2023-04-26T05:20:41.563Z,101126.53
2023-04-26T05:23:10.846Z,101127.13
2023-04-26T05:25:40.460Z,101133.22
2023-04-26T05:28:12.551Z,101135.44
2023-04-26T05:30:39.664Z,101137.50
2023-04-26T05:33:06.904Z,101138.16
2023-04-26T05:35:36.416Z,101139.50
2023-04-26T05:38:03.849Z,101136.06
2023-04-26T05:40:32.892Z,101143.97
2023-04-26T05:43:02.290Z,101146.22
2023-04-26T05:45:29.304Z,101142.34
2023-04-26T05:47:56.542Z,101142.81
2023-04-26T05:50:25.655Z,101144.38
2023-04-26T05:52:54.622Z,101142.41
2023-04-26T05:55:21.473Z,101144.28
2023-04-26T05:57:50.853Z,101154.94
2023-04-26T06:00:20.286Z,101144.16
2023-04-26T06:02:49.603Z,101146.03
2023-04-26T06:05:17.089Z,101139.22
2023-04-26T06:07:48.783Z,101145.44
2023-04-26T06:10:15.774Z,101149.69
2023-04-26T06:12:42.864Z,101142.03
2023-04-26T06:15:10.962Z,101148.16
2023-04-26T06:17:37.949Z,101157.22
2023-04-26T06:20:05.799Z,101155.03
2023-04-26T06:22:32.696Z,101155.78
2023-04-26T06:24:59.686Z,101156.03
2023-04-26T06:27:31.230Z,101156.34
2023-04-26T06:29:58.231Z,101155.47
2023-04-26T06:32:25.256Z,101146.34
2023-04-26T06:34:56.652Z,101147.53
2023-04-26T06:37:23.621Z,101150.06
2023-04-26T06:39:50.473Z,101151.75
2023-04-26T06:42:17.721Z,101152.13
2023-04-26T06:44:44.663Z,101152.59
2023-04-26T06:47:14.431Z,101148.16
2023-04-26T06:49:41.358Z,101154.78
2023-04-26T06:52:09.447Z,101154.72
2023-04-26T06:54:46.047Z,101150.88
2023-04-26T06:57:21.024Z,101157.03
2023-04-26T06:59:47.922Z,101154.91
2023-04-26T07:02:18.147Z,101154.28
2023-04-26T07:04:45.670Z,101142.88
2023-04-26T07:07:16.502Z,101153.66
2023-04-26T07:09:44.577Z,101147.84
2023-04-26T07:12:12.525Z,101157.69
2023-04-26T07:14:43.357Z,101150.50
2023-04-26T07:17:13.128Z,101158.81
2023-04-26T07:19:42.467Z,101163.19
2023-04-26T07:22:12.096Z,101168.53
2023-04-26T07:24:38.963Z,101170.00
2023-04-26T07:27:05.892Z,101168.59
2023-04-26T07:29:37.587Z,101168.19
2023-04-26T07:32:05.045Z,101169.81
2023-04-26T07:34:32.255Z,101172.19
2023-04-26T07:36:59.119Z,101163.06
2023-04-26T07:39:28.656Z,101170.88
2023-04-26T07:41:55.784Z,101171.22
2023-04-26T07:44:22.688Z,101180.16
2023-04-26T07:46:52.112Z,101171.38
2023-04-26T07:49:19.243Z,101169.56
2023-04-26T07:51:49.161Z,101172.91
2023-04-26T07:54:16.163Z,101162.53
2023-04-26T07:56:45.871Z,101169.28
2023-04-26T07:59:15.548Z,101177.25
2023-04-26T08:01:42.600Z,101180.28
2023-04-26T08:04:09.767Z,101178.22
2023-04-26T08:06:39.327Z,101171.06
2023-04-26T08:09:06.232Z,101172.69
2023-04-26T08:11:35.333Z,101166.00
2023-04-26T08:14:04.417Z,101171.19
2023-04-26T08:16:31.343Z,101177.13
2023-04-26T08:19:02.645Z,101177.88
2023-04-26T08:21:29.684Z,101170.31
2023-04-26T08:23:56.509Z,101178.66
2023-04-26T08:26:25.982Z,101179.38
2023-04-26T08:28:52.820Z,101173.44
2023-04-26T08:31:22.967Z,101188.69
2023-04-26T08:33:50.101Z,101195.47
2023-04-26T08:36:17.194Z,101192.88
2023-04-26T08:38:46.579Z,101194.44
2023-04-26T08:41:16.809Z,101206.13
2023-04-26T08:43:44.064Z,101179.44
2023-04-26T08:46:16.855Z,101188.16
2023-04-26T08:48:43.812Z,101193.31
2023-04-26T08:51:14.329Z,101199.44
2023-04-26T08:53:41.962Z,101199.28
2023-04-26T08:56:11.399Z,101208.56
2023-04-26T08:58:41.282Z,101204.75
2023-04-26T09:01:09.453Z,101199.03
2023-04-26T09:03:39.020Z,101181.94
2023-04-26T09:06:12.082Z,101184.41
2023-04-26T09:08:44.120Z,101193.53
2023-04-26T09:11:10.979Z,101190.91
2023-04-26T09:13:40.986Z,101189.81
2023-04-26T09:16:08.045Z,101189.41
2023-04-26T09:18:35.042Z,101187.53
2023-04-26T09:21:09.311Z,101188.75
2023-04-26T09:23:36.669Z,101189.88
2023-04-26T09:26:22.872Z,101184.13
2023-04-26T09:28:50.545Z,101197.19
2023-04-26T09:31:41.425Z,101198.59
2023-04-26T09:34:12.438Z,101211.34
2023-04-26T09:36:56.938Z,101200.66
2023-04-26T09:39:37.491Z,101196.63
2023-04-26T09:42:11.155Z,101201.69
2023-04-26T09:44:40.727Z,101200.69
2023-04-26T09:47:12.055Z,101199.66
2023-04-26T09:49:51.502Z,101210.78
2023-04-26T09:52:23.999Z,101209.59
2023-04-26T09:54:53.891Z,101215.09
2023-04-26T09:57:22.448Z,101214.44
2023-04-26T09:59:56.276Z,101218.84
2023-04-26T10:02:26.397Z,101237.63
2023-04-26T10:04:56.750Z,101236.91
2023-04-26T10:07:28.784Z,101236.25
2023-04-26T10:09:58.594Z,101229.31
2023-04-26T10:12:27.713Z,101229.94
2023-04-26T10:14:57.333Z,101233.34
2023-04-26T10:17:24.286Z,101226.78
2023-04-26T10:19:58.710Z,101234.56
2023-04-26T10:22:33.686Z,101219.19
2023-04-26T10:25:01.126Z,101220.59
2023-04-26T10:27:43.247Z,101216.81
2023-04-26T10:30:19.765Z,101220.78
2023-04-26T10:33:13.904Z,101206.44
2023-04-26T10:36:11.395Z,101207.50
2023-04-26T10:39:18.370Z,101210.06
2023-04-26T10:41:45.403Z,101208.44
2023-04-26T10:44:41.770Z,101216.66
2023-04-26T10:47:31.756Z,101209.50
2023-04-26T10:50:11.474Z,101196.50
2023-04-26T10:53:02.464Z,101201.38
2023-04-26T10:55:43.190Z,101208.59
2023-04-26T10:58:34.174Z,101199.41
2023-04-26T11:01:21.127Z,101211.94
2023-04-26T11:04:00.123Z,101213.44
2023-04-26T11:06:47.859Z,101224.53
2023-04-26T11:09:50.529Z,101214.25
2023-04-26T11:12:22.086Z,101211.13
2023-04-26T11:14:51.199Z,101216.91
2023-04-26T11:17:18.043Z,101219.44
2023-04-26T11:19:47.961Z,101215.69
2023-04-26T11:22:16.912Z,101215.31
2023-04-26T11:24:46.421Z,101208.66
2023-04-26T11:27:13.294Z,101219.09
2023-04-26T11:29:43.276Z,101227.47
2023-04-26T11:32:10.866Z,101227.09
2023-04-26T11:34:44.285Z,101239.47
2023-04-26T11:37:11.640Z,101232.44
2023-04-26T11:39:38.532Z,101246.72
2023-04-26T11:42:10.922Z,101234.53
2023-04-26T11:44:40.453Z,101234.06
2023-04-26T11:47:08.289Z,101231.19
2023-04-26T11:49:39.511Z,101243.78
2023-04-26T11:52:08.768Z,101240.88
2023-04-26T11:54:37.871Z,101248.19
2023-04-26T11:57:18.249Z,101244.97
2023-04-26T11:59:47.781Z,101255.50
2023-04-26T12:02:19.098Z,101259.91
2023-04-26T12:04:48.855Z,101269.75
2023-04-26T12:07:19.618Z,101258.84
2023-04-26T12:09:46.653Z,101256.81
2023-04-26T12:12:16.782Z,101250.72
2023-04-26T12:14:45.458Z,101253.38
2023-04-26T12:17:15.646Z,101242.91
2023-04-26T12:19:49.998Z,101240.09
2023-04-26T12:22:22.080Z,101246.59
2023-04-26T12:24:51.128Z,101239.16
2023-04-26T12:27:26.150Z,101242.75
2023-04-26T12:29:52.991Z,101248.66
2023-04-26T12:32:22.784Z,101247.47
2023-04-26T12:34:49.791Z,101241.22
2023-04-26T12:37:21.251Z,101246.44
2023-04-26T12:39:52.727Z,101255.53
2023-04-26T12:42:21.796Z,101256.47
2023-04-26T12:44:51.233Z,101258.88
2023-04-26T12:47:18.227Z,101264.00
2023-04-26T12:49:48.504Z,101265.69
2023-04-26T12:52:15.364Z,101262.66
2023-04-26T12:54:44.900Z,101269.94
2023-04-26T12:57:11.756Z,101256.50
2023-04-26T12:59:41.262Z,101256.81
2023-04-26T13:02:10.644Z,101254.47
2023-04-26T13:04:41.042Z,101267.22
2023-04-26T13:07:08.875Z,101268.25
2023-04-26T13:09:38.271Z,101273.13
2023-04-26T13:12:05.416Z,101265.53
2023-04-26T13:14:34.824Z,101261.13
2023-04-26T13:17:01.977Z,101274.91
2023-04-26T13:19:29.011Z,101271.16
2023-04-26T13:22:01.194Z,101265.09
2023-04-26T13:24:28.087Z,101263.16
2023-04-26T13:26:55.480Z,101268.38
2023-04-26T13:29:22.498Z,101267.13
2023-04-26T13:31:49.477Z,101261.28
2023-04-26T13:34:16.467Z,101264.97
2023-04-26T13:36:43.353Z,101273.16
2023-04-26T13:39:12.485Z,101273.59
2023-04-26T13:41:41.659Z,101262.44
2023-04-26T13:44:08.561Z,101259.88
2023-04-26T13:46:38.517Z,101261.97
2023-04-26T13:49:08.292Z,101268.09
2023-04-26T13:51:37.451Z,101270.47
2023-04-26T13:54:07.290Z,101264.00
2023-04-26T13:56:36.661Z,101266.81
2023-04-26T13:59:07.651Z,101256.91
2023-04-26T14:01:40.635Z,101250.78
2023-04-26T14:04:11.331Z,101258.09
2023-04-26T14:06:38.416Z,101257.28
2023-04-26T14:09:08.744Z,101259.88
2023-04-26T14:11:36.050Z,101263.38
2023-04-26T14:14:02.927Z,101272.63
2023-04-26T14:16:29.928Z,101263.53
2023-04-26T14:19:01.311Z,101262.91
2023-04-26T14:21:28.478Z,101268.09
2023-04-26T14:23:56.454Z,101268.56
2023-04-26T14:26:28.377Z,101254.88
2023-04-26T14:28:57.839Z,101257.50
2023-04-26T14:31:26.104Z,101254.97
2023-04-26T14:33:56.500Z,101256.00
2023-04-26T14:36:23.592Z,101249.81
2023-04-26T14:38:50.859Z,101255.22
2023-04-26T14:41:19.258Z,101251.78
2023-04-26T14:43:50.417Z,101254.16
2023-04-26T14:46:17.622Z,101249.03
2023-04-26T14:48:47.597Z,101258.03
2023-04-26T14:51:14.453Z,101256.75
2023-04-26T14:53:41.329Z,101268.69
2023-04-26T14:56:10.714Z,101274.84
2023-04-26T14:58:37.620Z,101264.47
2023-04-26T15:01:04.739Z,101272.81
2023-04-26T15:03:32.663Z,101270.78
2023-04-26T15:05:59.962Z,101268.41
2023-04-26T15:08:27.524Z,101275.22
2023-04-26T15:10:54.423Z,101279.63
2023-04-26T15:13:21.336Z,101272.31
2023-04-26T15:15:48.384Z,101285.09
2023-04-26T15:18:15.300Z,101277.94
2023-04-26T15:20:42.214Z,101274.16
2023-04-26T15:23:09.165Z,101280.81
2023-04-26T15:25:38.581Z,101287.28
2023-04-26T15:28:05.755Z,101278.28
2023-04-26T15:30:32.675Z,101278.47
2023-04-26T15:33:00.327Z,101286.28
2023-04-26T15:35:27.361Z,101284.06
2023-04-26T15:37:56.827Z,101280.66
2023-04-26T15:40:27.551Z,101282.03
2023-04-26T15:42:56.957Z,101282.03
2023-04-26T15:45:23.818Z,101280.66
2023-04-26T15:47:55.223Z,101285.78
2023-04-26T15:50:22.284Z,101281.50
2023-04-26T15:52:49.289Z,101292.03
2023-04-26T15:55:16.445Z,101286.75
2023-04-26T15:57:46.493Z,101282.84
2023-04-26T16:00:14.270Z,101276.03
2023-04-26T16:02:44.858Z,101278.56
2023-04-26T16:05:14.893Z,101288.06
2023-04-26T16:07:41.949Z,101292.19
2023-04-26T16:10:12.600Z,101295.28
2023-04-26T16:12:43.394Z,101294.44
2023-04-26T16:15:14.409Z,101294.63
2023-04-26T16:17:41.540Z,101296.50
2023-04-26T16:20:10.366Z,101296.31
2023-04-26T16:22:39.507Z,101293.25
2023-04-26T16:25:09.511Z,101296.31
2023-04-26T16:27:36.520Z,101293.44
2023-04-26T16:30:06.607Z,101299.88
2023-04-26T16:32:34.050Z,101303.75
2023-04-26T16:35:01.074Z,101297.31
2023-04-26T16:37:28.418Z,101301.91
2023-04-26T16:39:58.030Z,101295.59
2023-04-26T16:42:24.922Z,101291.16
2023-04-26T16:44:52.174Z,101299.97
2023-04-26T16:47:21.934Z,101298.94
2023-04-26T16:49:48.757Z,101295.91
2023-04-26T16:52:16.253Z,101293.53
2023-04-26T16:54:46.193Z,101296.28
2023-04-26T16:57:13.997Z,101297.66
2023-04-26T16:59:40.932Z,101304.81
2023-04-26T17:02:07.790Z,101299.66
2023-04-26T17:04:34.879Z,101300.19
2023-04-26T17:07:07.428Z,101304.75
2023-04-26T17:09:35.221Z,101313.38
2023-04-26T17:12:07.180Z,101313.94
2023-04-26T17:14:34.813Z,101301.69
2023-04-26T17:17:02.266Z,101321.19
2023-04-26T17:19:29.322Z,101313.88
2023-04-26T17:21:56.220Z,101323.88
2023-04-26T17:24:23.130Z,101315.66
2023-04-26T17:26:50.046Z,101313.78
2023-04-26T17:29:16.980Z,101321.09
2023-04-26T17:31:44.484Z,101318.66
2023-04-26T17:34:11.700Z,101332.97
2023-04-26T17:36:40.961Z,101323.00
2023-04-26T17:39:09.226Z,101330.66
2023-04-26T17:41:38.493Z,101322.09
2023-04-26T17:44:07.712Z,101325.13
2023-04-26T17:46:34.611Z,101325.88
2023-04-26T17:49:07.193Z,101320.53
2023-04-26T17:51:34.179Z,101327.94
2023-04-26T17:54:04.149Z,101325.88
2023-04-26T17:56:31.011Z,101331.94
2023-04-26T17:58:57.865Z,101337.06
2023-04-26T18:01:24.876Z,101336.53
2023-04-26T18:03:56.777Z,101329.41
2023-04-26T18:06:26.891Z,101328.88
2023-04-26T18:08:54.190Z,101330.84
2023-04-26T18:11:22.074Z,101328.34
2023-04-26T18:13:49.059Z,101344.41
2023-04-26T18:16:18.615Z,101343.69
2023-04-26T18:18:50.338Z,101346.50
2023-04-26T18:21:17.258Z,101349.25
2023-04-26T18:23:45.500Z,101348.75
2023-04-26T18:26:12.750Z,101352.88
2023-04-26T18:28:44.856Z,101352.78
2023-04-26T18:31:14.413Z,101353.22
2023-04-26T18:33:41.323Z,101346.34
2023-04-26T18:36:10.721Z,101358.75
2023-04-26T18:38:37.632Z,101355.72
2023-04-26T18:41:07.546Z,101359.97
2023-04-26T18:43:36.843Z,101365.00
2023-04-26T18:46:03.760Z,101361.66
2023-04-26T18:48:33.677Z,101368.06
2023-04-26T18:51:01.045Z,101367.25
2023-04-26T18:53:30.416Z,101370.47
2023-04-26T18:55:59.855Z,101365.16
2023-04-26T18:58:31.414Z,101371.47
2023-04-26T19:00:58.311Z,101372.44
2023-04-26T19:03:26.893Z,101376.16
2023-04-26T19:05:54.137Z,101372.16
2023-04-26T19:08:21.085Z,101373.81
2023-04-26T19:10:47.949Z,101381.34
2023-04-26T19:13:19.661Z,101383.81
2023-04-26T19:15:49.092Z,101378.59
2023-04-26T19:18:17.933Z,101385.72
2023-04-26T19:20:45.019Z,101389.47
2023-04-26T19:23:12.601Z,101389.22
2023-04-26T19:25:44.970Z,101390.63
2023-04-26T19:28:11.933Z,101389.16
2023-04-26T19:30:41.259Z,101402.00
2023-04-26T19:33:08.112Z,101399.72
2023-04-26T19:35:34.996Z,101403.78
2023-04-26T19:38:06.676Z,101400.28
2023-04-26T19:40:33.618Z,101406.06
2023-04-26T19:43:00.562Z,101407.19
2023-04-26T19:45:29.049Z,101407.28
2023-04-26T19:47:58.228Z,101410.63
2023-04-26T19:50:25.196Z,101410.75
2023-04-26T19:52:52.165Z,101406.13
2023-04-26T19:55:22.345Z,101411.53
2023-04-26T19:57:49.243Z,101413.25
2023-04-26T20:00:18.648Z,101418.44
2023-04-26T20:02:45.678Z,101411.88
2023-04-26T20:05:15.231Z,101416.69
2023-04-26T20:07:46.766Z,101408.28
2023-04-26T20:10:15.922Z,101420.41
2023-04-26T20:12:42.867Z,101424.56
2023-04-26T20:15:12.073Z,101418.44
2023-04-26T20:17:42.767Z,101419.84
2023-04-26T20:20:12.924Z,101417.81
2023-04-26T20:22:40.678Z,101417.53
2023-04-26T20:25:10.668Z,101416.72
2023-04-26T20:27:39.853Z,101413.84
2023-04-26T20:30:10.870Z,101414.97
2023-04-26T20:32:37.816Z,101415.25
2023-04-26T20:35:08.522Z,101418.22
2023-04-26T20:37:37.599Z,101426.47
2023-04-26T20:40:08.052Z,101419.66
2023-04-26T20:42:38.050Z,101417.78
2023-04-26T20:45:05.588Z,101418.06
2023-04-26T20:47:32.751Z,101421.19
2023-04-26T20:49:59.816Z,101427.59
2023-04-26T20:52:27.143Z,101434.09
2023-04-26T20:55:07.268Z,101432.16
2023-04-26T20:57:34.148Z,101433.88
2023-04-26T21:00:01.094Z,101435.06
2023-04-26T21:02:28.251Z,101437.06
2023-04-26T21:04:55.346Z,101429.72
2023-04-26T21:07:24.637Z,101443.03
2023-04-26T21:09:53.734Z,101447.91
2023-04-26T21:12:20.671Z,101442.16
2023-04-26T21:14:47.929Z,101442.94
2023-04-26T21:17:15.572Z,101440.63
2023-04-26T21:19:47.430Z,101446.38
2023-04-26T21:22:16.580Z,101458.44
2023-04-26T21:24:43.475Z,101453.09
2023-04-26T21:27:12.803Z,101452.88
2023-04-26T21:29:39.696Z,101453.41
2023-04-26T21:32:06.642Z,101452.50
2023-04-26T21:34:33.480Z,101449.84
2023-04-26T21:37:05.405Z,101453.03
2023-04-26T21:39:32.382Z,101444.16
2023-04-26T21:41:59.476Z,101444.25
2023-04-26T21:44:26.369Z,101444.06
2023-04-26T21:46:53.367Z,101447.34
2023-04-26T21:49:20.338Z,101449.03
2023-04-26T21:51:47.190Z,101452.00
2023-04-26T21:54:16.845Z,101453.72
2023-04-26T21:56:43.802Z,101459.56
2023-04-26T21:59:17.587Z,101450.63
2023-04-26T22:01:44.542Z,101452.16
2023-04-26T22:04:11.557Z,101455.16
2023-04-26T22:06:38.588Z,101461.16
2023-04-26T22:09:09.283Z,101463.84
2023-04-26T22:11:38.967Z,101458.72
2023-04-26T22:14:08.141Z,101458.00
2023-04-26T22:16:35.153Z,101458.19
2023-04-26T22:19:01.986Z,101456.94
2023-04-26T22:21:29.412Z,101462.28
2023-04-26T22:23:56.316Z,101466.25
2023-04-26T22:26:26.169Z,101466.66
2023-04-26T22:28:53.037Z,101462.63
2023-04-26T22:31:20.109Z,101463.97
2023-04-26T22:33:49.187Z,101471.81
2023-04-26T22:36:16.097Z,101470.25
2023-04-26T22:38:42.934Z,101469.41
2023-04-26T22:41:09.788Z,101473.50
2023-04-26T22:43:36.866Z,101474.03
2023-04-26T22:46:06.429Z,101468.47
2023-04-26T22:48:35.995Z,101477.03
2023-04-26T22:51:05.935Z,101475.69
2023-04-26T22:53:32.762Z,101477.28
2023-04-26T22:56:01.913Z,101480.69
2023-04-26T22:58:29.160Z,101475.63
2023-04-26T23:00:58.999Z,101475.63
2023-04-26T23:03:28.597Z,101476.81
2023-04-26T23:05:58.841Z,101474.53
2023-04-26T23:08:25.827Z,101480.53
2023-04-26T23:10:52.695Z,101476.72
2023-04-26T23:13:19.658Z,101473.53
2023-04-26T23:15:49.044Z,101475.63
2023-04-26T23:18:18.387Z,101485.91
2023-04-26T23:20:47.853Z,101478.44
2023-04-26T23:23:14.711Z,101482.22
2023-04-26T23:25:42.339Z,101484.69
2023-04-26T23:28:11.402Z,101489.34
2023-04-26T23:30:38.284Z,101491.81
2023-04-26T23:33:05.351Z,101491.06
2023-04-26T23:35:35.386Z,101488.88
2023-04-26T23:38:04.422Z,101496.44
2023-04-26T23:40:37.141Z,101487.03
2023-04-26T23:43:06.061Z,101488.88
2023-04-26T23:45:37.617Z,101498.41
2023-04-26T23:48:06.912Z,101494.00
2023-04-26T23:50:35.866Z,101500.75
2023-04-26T23:53:02.734Z,101493.03
2023-04-26T23:55:29.575Z,101493.78
2023-04-26T23:57:58.534Z,101500.88
